sensor_id;sensor_type;location;lat;lon;timestamp;pressure;altitude;pressure_sealevel;temperature;humidity
70921;BME280;58572;48.110;19.838;2024-03-02T00:00:50;97236.72;;;8.90;81.20
70921;BME280;58572;48.110;19.838;2024-03-02T00:03:18;97245.50;;;8.82;81.02
70921;BME280;58572;48.110;19.838;2024-03-02T00:05:50;97240.66;;;9.03;80.68
70921;BME280;58572;48.110;19.838;2024-03-02T00:08:23;97243.97;;;9.19;79.88
70921;BME280;58572;48.110;19.838;2024-03-02T00:10:50;97241.16;;;9.29;80.01
70921;BME280;58572;48.110;19.838;2024-03-02T00:13:20;97236.88;;;9.66;79.20
70921;BME280;58572;48.110;19.838;2024-03-02T00:15:52;97236.72;;;9.76;79.04
70921;BME280;58572;48.110;19.838;2024-03-02T00:18:21;97226.06;;;9.98;78.45
70921;BME280;58572;48.110;19.838;2024-03-02T00:20:54;97220.09;;;10.34;77.24
70921;BME280;58572;48.110;19.838;2024-03-02T00:23:22;97215.03;;;10.27;77.87
70921;BME280;58572;48.110;19.838;2024-03-02T00:25:51;97228.75;;;10.36;77.46
70921;BME280;58572;48.110;19.838;2024-03-02T00:28:20;97217.88;;;10.36;76.62
70921;BME280;58572;48.110;19.838;2024-03-02T00:30:58;97219.34;;;10.47;77.18
70921;BME280;58572;48.110;19.838;2024-03-02T00:33:30;97221.09;;;10.70;75.61
70921;BME280;58572;48.110;19.838;2024-03-02T00:35:59;97220.88;;;10.53;76.76
70921;BME280;58572;48.110;19.838;2024-03-02T00:38:28;97212.91;;;10.43;77.36
70921;BME280;58572;48.110;19.838;2024-03-02T00:40:56;97210.75;;;10.40;77.70
70921;BME280;58572;48.110;19.838;2024-03-02T00:43:43;97214.34;;;10.35;78.12
70921;BME280;58572;48.110;19.838;2024-03-02T00:46:13;97214.25;;;10.27;78.59
70921;BME280;58572;48.110;19.838;2024-03-02T00:48:56;97200.84;;;10.49;77.54
70921;BME280;58572;48.110;19.838;2024-03-02T00:51:26;97206.66;;;10.42;78.00
70921;BME280;58572;48.110;19.838;2024-03-02T00:53:54;97202.75;;;10.62;77.14
70921;BME280;58572;48.110;19.838;2024-03-02T00:56:22;97196.66;;;10.38;77.36
70921;BME280;58572;48.110;19.838;2024-03-02T00:58:49;97186.25;;;10.26;77.55
70921;BME280;58572;48.110;19.838;2024-03-02T01:01:17;97190.28;;;10.29;77.32
70921;BME280;58572;48.110;19.838;2024-03-02T01:03:45;97194.31;;;9.99;78.10
70921;BME280;58572;48.110;19.838;2024-03-02T01:06:12;97192.22;;;10.09;77.12
70921;BME280;58572;48.110;19.838;2024-03-02T01:08:40;97174.91;;;10.38;75.41
70921;BME280;58572;48.110;19.838;2024-03-02T01:11:07;97188.66;;;9.95;77.20
70921;BME280;58572;48.110;19.838;2024-03-02T01:13:34;97190.13;;;10.39;75.69
70921;BME280;58572;48.110;19.838;2024-03-02T01:16:02;97182.41;;;9.95;76.70
70921;BME280;58572;48.110;19.838;2024-03-02T01:18:29;97190.47;;;10.00;76.77
70921;BME280;58572;48.110;19.838;2024-03-02T01:20:56;97198.56;;;9.86;77.77
70921;BME280;58572;48.110;19.838;2024-03-02T01:23:23;97199.06;;;10.07;77.23
70921;BME280;58572;48.110;19.838;2024-03-02T01:25:52;97193.78;;;9.97;77.49
70921;BME280;58572;48.110;19.838;2024-03-02T01:28:19;97161.19;;;9.45;78.03
70921;BME280;58572;48.110;19.838;2024-03-02T01:30:47;97204.16;;;9.76;77.92
70921;BME280;58572;48.110;19.838;2024-03-02T01:33:14;97193.13;;;10.05;77.07
70921;BME280;58572;48.110;19.838;2024-03-02T01:35:41;97191.78;;;10.02;76.26
70921;BME280;58572;48.110;19.838;2024-03-02T01:38:08;97196.03;;;10.08;76.85
70921;BME280;58572;48.110;19.838;2024-03-02T01:40:36;97188.81;;;10.17;76.63
70921;BME280;58572;48.110;19.838;2024-03-02T01:43:05;97182.09;;;9.64;78.48
70921;BME280;58572;48.110;19.838;2024-03-02T01:45:32;97190.44;;;9.86;77.66
70921;BME280;58572;48.110;19.838;2024-03-02T01:48:00;97187.75;;;9.67;78.34
70921;BME280;58572;48.110;19.838;2024-03-02T01:50:28;97189.44;;;9.63;78.56
70921;BME280;58572;48.110;19.838;2024-03-02T01:52:56;97187.63;;;9.91;77.90
70921;BME280;58572;48.110;19.838;2024-03-02T01:55:23;97184.13;;;9.72;78.28
70921;BME280;58572;48.110;19.838;2024-03-02T01:57:50;97179.38;;;10.15;75.97
70921;BME280;58572;48.110;19.838;2024-03-02T02:00:20;97172.13;;;10.10;76.99
70921;BME280;58572;48.110;19.838;2024-03-02T02:02:48;97176.00;;;9.72;78.31
70921;BME280;58572;48.110;19.838;2024-03-02T02:05:15;97165.56;;;9.79;77.61
70921;BME280;58572;48.110;19.838;2024-03-02T02:07:42;97169.91;;;10.12;76.68
70921;BME280;58572;48.110;19.838;2024-03-02T02:10:10;97152.28;;;9.77;77.70
70921;BME280;58572;48.110;19.838;2024-03-02T02:12:37;97164.00;;;9.91;77.89
70921;BME280;58572;48.110;19.838;2024-03-02T02:15:07;97163.03;;;10.01;76.77
70921;BME280;58572;48.110;19.838;2024-03-02T02:17:49;97122.69;;;9.62;77.64
70921;BME280;58572;48.110;19.838;2024-03-02T02:20:16;97149.53;;;9.96;77.19
70921;BME280;58572;48.110;19.838;2024-03-02T02:23:00;97146.91;;;9.91;77.22
70921;BME280;58572;48.110;19.838;2024-03-02T02:25:28;97156.41;;;10.07;77.81
70921;BME280;58572;48.110;19.838;2024-03-02T02:27:55;97166.31;;;9.66;78.91
70921;BME280;58572;48.110;19.838;2024-03-02T02:30:24;97172.19;;;9.73;79.00
70921;BME280;58572;48.110;19.838;2024-03-02T02:32:51;97176.44;;;9.79;78.86
70921;BME280;58572;48.110;19.838;2024-03-02T02:35:18;97176.53;;;10.06;77.30
70921;BME280;58572;48.110;19.838;2024-03-02T02:37:46;97182.38;;;10.13;77.20
70921;BME280;58572;48.110;19.838;2024-03-02T02:40:15;97188.81;;;10.17;76.79
70921;BME280;58572;48.110;19.838;2024-03-02T02:42:42;97189.28;;;10.24;76.63
70921;BME280;58572;48.110;19.838;2024-03-02T02:45:09;97183.25;;;10.28;76.22
70921;BME280;58572;48.110;19.838;2024-03-02T02:47:36;97177.41;;;10.20;76.65
70921;BME280;58572;48.110;19.838;2024-03-02T02:50:04;97181.13;;;10.24;76.48
70921;BME280;58572;48.110;19.838;2024-03-02T02:52:32;97172.97;;;9.92;77.61
70921;BME280;58572;48.110;19.838;2024-03-02T02:55:03;97192.81;;;10.06;77.28
70921;BME280;58572;48.110;19.838;2024-03-02T02:57:31;97190.78;;;9.98;77.81
70921;BME280;58572;48.110;19.838;2024-03-02T03:00:02;97182.22;;;9.91;77.80
70921;BME280;58572;48.110;19.838;2024-03-02T03:02:36;97184.06;;;10.09;77.99
70921;BME280;58572;48.110;19.838;2024-03-02T03:05:04;97190.09;;;10.06;77.87
70921;BME280;58572;48.110;19.838;2024-03-02T03:07:32;97188.56;;;10.00;77.92
70921;BME280;58572;48.110;19.838;2024-03-02T03:09:59;97183.16;;;10.00;78.15
70921;BME280;58572;48.110;19.838;2024-03-02T03:12:26;97187.66;;;10.23;77.56
70921;BME280;58572;48.110;19.838;2024-03-02T03:14:55;97183.63;;;10.21;77.53
70921;BME280;58572;48.110;19.838;2024-03-02T03:17:22;97183.66;;;10.35;nan
70921;BME280;58572;48.110;19.838;2024-03-02T03:19:49;97181.56;;;10.32;76.90
70921;BME280;58572;48.110;19.838;2024-03-02T03:22:16;97185.81;;;10.19;77.47
70921;BME280;58572;48.110;19.838;2024-03-02T03:24:43;97188.78;;;10.22;77.17
70921;BME280;58572;48.110;19.838;2024-03-02T03:27:10;97188.69;;;10.28;77.17
70921;BME280;58572;48.110;19.838;2024-03-02T03:29:37;97192.16;;;10.47;75.78
70921;BME280;58572;48.110;19.838;2024-03-02T03:32:06;97188.28;;;10.34;77.50
70921;BME280;58572;48.110;19.838;2024-03-02T03:34:33;97188.34;;;10.48;76.03
70921;BME280;58572;48.110;19.838;2024-03-02T03:37:00;97181.31;;;10.47;75.59
70921;BME280;58572;48.110;19.838;2024-03-02T03:39:27;97189.84;;;10.40;76.17
70921;BME280;58572;48.110;19.838;2024-03-02T03:41:54;97196.72;;;10.65;75.01
70921;BME280;58572;48.110;19.838;2024-03-02T03:44:21;97194.88;;;10.47;75.98
70921;BME280;58572;48.110;19.838;2024-03-02T03:46:48;97200.72;;;10.40;76.84
70921;BME280;58572;48.110;19.838;2024-03-02T03:49:16;97192.41;;;10.32;76.53
70921;BME280;58572;48.110;19.838;2024-03-02T03:51:44;97189.50;;;10.28;76.95
70921;BME280;58572;48.110;19.838;2024-03-02T03:54:10;97185.88;;;10.33;76.97
70921;BME280;58572;48.110;19.838;2024-03-02T03:56:38;97180.69;;;10.17;77.10
70921;BME280;58572;48.110;19.838;2024-03-02T03:59:04;97196.03;;;10.27;77.33
70921;BME280;58572;48.110;19.838;2024-03-02T04:01:31;97190.22;;;10.34;77.07
70921;BME280;58572;48.110;19.838;2024-03-02T04:03:59;97197.63;;;10.28;77.31
70921;BME280;58572;48.110;19.838;2024-03-02T04:06:28;97186.59;;;10.38;76.57
70921;BME280;58572;48.110;19.838;2024-03-02T04:08:55;97193.69;;;10.20;78.08
70921;BME280;58572;48.110;19.838;2024-03-02T04:11:22;97193.69;;;10.20;77.48
70921;BME280;58572;48.110;19.838;2024-03-02T04:13:49;97192.06;;;10.19;77.94
70921;BME280;58572;48.110;19.838;2024-03-02T04:16:16;97195.34;;;10.35;76.82
70921;BME280;58572;48.110;19.838;2024-03-02T04:18:43;97193.94;;;10.38;76.69
70921;BME280;58572;48.110;19.838;2024-03-02T04:21:10;97201.06;;;10.34;76.83
70921;BME280;58572;48.110;19.838;2024-03-02T04:23:39;97204.56;;;10.20;78.40
70921;BME280;58572;48.110;19.838;2024-03-02T04:26:06;97209.22;;;10.34;78.50
70921;BME280;58572;48.110;19.838;2024-03-02T04:28:33;97215.09;;;10.41;77.82
70921;BME280;58572;48.110;19.838;2024-03-02T04:31:00;97221.88;;;10.24;79.19
70921;BME280;58572;48.110;19.838;2024-03-02T04:33:26;97222.72;;;10.39;79.22
70921;BME280;58572;48.110;19.838;2024-03-02T04:35:53;97212.63;;;10.26;79.32
70921;BME280;58572;48.110;19.838;2024-03-02T04:38:20;97223.25;;;10.41;78.90
70921;BME280;58572;48.110;19.838;2024-03-02T04:40:49;97229.94;;;10.30;79.64
70921;BME280;58572;48.110;19.838;2024-03-02T04:43:15;97226.84;;;10.82;77.70
70921;BME280;58572;48.110;19.838;2024-03-02T04:45:42;97233.75;;;10.29;80.39
70921;BME280;58572;48.110;19.838;2024-03-02T04:48:09;97230.31;;;10.42;80.49
70921;BME280;58572;48.110;19.838;2024-03-02T04:50:37;97240.22;;;10.33;80.72
70921;BME280;58572;48.110;19.838;2024-03-02T04:53:04;97231.91;;;11.03;78.07
70921;BME280;58572;48.110;19.838;2024-03-02T04:55:31;97232.69;;;10.76;79.50
70921;BME280;58572;48.110;19.838;2024-03-02T04:58:13;97237.34;;;11.03;78.19
70921;BME280;58572;48.110;19.838;2024-03-02T05:00:40;97235.31;;;11.36;74.32
70921;BME280;58572;48.110;19.838;2024-03-02T05:03:08;97229.97;;;11.94;72.21
70921;BME280;58572;48.110;19.838;2024-03-02T05:05:35;97236.38;;;12.12;69.47
70921;BME280;58572;48.110;19.838;2024-03-02T05:08:02;97238.78;;;12.36;69.31
70921;BME280;58572;48.110;19.838;2024-03-02T05:10:29;97243.66;;;12.03;69.71
70921;BME280;58572;48.110;19.838;2024-03-02T05:12:56;97250.78;;;11.90;70.24
70921;BME280;58572;48.110;19.838;2024-03-02T05:15:26;97244.28;;;12.00;69.04
70921;BME280;58572;48.110;19.838;2024-03-02T05:17:52;97245.31;;;11.90;72.02
70921;BME280;58572;48.110;19.838;2024-03-02T05:20:19;97244.09;;;12.41;68.14
70921;BME280;58572;48.110;19.838;2024-03-02T05:22:45;97249.44;;;12.46;67.14
70921;BME280;58572;48.110;19.838;2024-03-02T05:25:13;97249.56;;;12.41;70.96
70921;BME280;58572;48.110;19.838;2024-03-02T05:27:40;97253.38;;;11.95;69.21
70921;BME280;58572;48.110;19.838;2024-03-02T05:30:08;97254.22;;;11.82;73.46
70921;BME280;58572;48.110;19.838;2024-03-02T05:32:36;97260.09;;;11.34;75.57
70921;BME280;58572;48.110;19.838;2024-03-02T05:35:04;97260.31;;;11.24;75.28
70921;BME280;58572;48.110;19.838;2024-03-02T05:37:30;97263.47;;;10.58;79.67
70921;BME280;58572;48.110;19.838;2024-03-02T05:39:57;97266.38;;;10.29;81.01
70921;BME280;58572;48.110;19.838;2024-03-02T05:42:24;97260.19;;;10.42;80.14
70921;BME280;58572;48.110;19.838;2024-03-02T05:44:52;97260.44;;;10.59;80.27
70921;BME280;58572;48.110;19.838;2024-03-02T05:47:19;97256.66;;;11.70;72.01
70921;BME280;58572;48.110;19.838;2024-03-02T05:49:47;97267.53;;;11.83;70.74
70921;BME280;58572;48.110;19.838;2024-03-02T05:52:14;97266.97;;;11.45;74.03
70921;BME280;58572;48.110;19.838;2024-03-02T05:54:42;97266.88;;;11.50;75.15
70921;BME280;58572;48.110;19.838;2024-03-02T05:57:09;97274.19;;;11.09;76.70
70921;BME280;58572;48.110;19.838;2024-03-02T06:00:02;97278.63;;;11.18;76.42
70921;BME280;58572;48.110;19.838;2024-03-02T06:02:33;97280.47;;;11.23;76.48
70921;BME280;58572;48.110;19.838;2024-03-02T06:05:02;97273.75;;;10.74;78.44
70921;BME280;58572;48.110;19.838;2024-03-02T06:07:29;97269.56;;;10.49;80.34
70921;BME280;58572;48.110;19.838;2024-03-02T06:09:56;97270.88;;;10.52;80.15
70921;BME280;58572;48.110;19.838;2024-03-02T06:12:23;97273.41;;;10.48;80.63
70921;BME280;58572;48.110;19.838;2024-03-02T06:14:50;97275.06;;;10.77;79.46
70921;BME280;58572;48.110;19.838;2024-03-02T06:17:17;97267.16;;;11.08;75.71
70921;BME280;58572;48.110;19.838;2024-03-02T06:19:44;97267.50;;;11.97;70.91
70921;BME280;58572;48.110;19.838;2024-03-02T06:22:13;97240.69;;;11.91;69.58
70921;BME280;58572;48.110;19.838;2024-03-02T06:24:40;97260.44;;;11.96;69.69
70921;BME280;58572;48.110;19.838;2024-03-02T06:27:07;97271.97;;;12.15;68.37
70921;BME280;58572;48.110;19.838;2024-03-02T06:29:34;97265.06;;;12.54;67.06
70921;BME280;58572;48.110;19.838;2024-03-02T06:32:01;97269.56;;;12.36;72.21
70921;BME280;58572;48.110;19.838;2024-03-02T06:34:28;97281.56;;;11.63;75.42
70921;BME280;58572;48.110;19.838;2024-03-02T06:36:55;97278.75;;;11.27;76.41
70921;BME280;58572;48.110;19.838;2024-03-02T06:39:23;97275.78;;;10.82;79.41
70921;BME280;58572;48.110;19.838;2024-03-02T06:41:51;97274.34;;;10.71;79.54
70921;BME280;58572;48.110;19.838;2024-03-02T06:44:18;97280.50;;;10.77;80.28
70921;BME280;58572;48.110;19.838;2024-03-02T06:46:45;97269.16;;;10.88;79.18
70921;BME280;58572;48.110;19.838;2024-03-02T06:49:11;97277.44;;;11.11;78.30
70921;BME280;58572;48.110;19.838;2024-03-02T06:51:38;97277.81;;;10.91;80.37
70921;BME280;58572;48.110;19.838;2024-03-02T06:54:07;97263.66;;;10.61;80.38
70921;BME280;58572;48.110;19.838;2024-03-02T06:56:35;97289.56;;;10.72;80.67
70921;BME280;58572;48.110;19.838;2024-03-02T06:59:04;97284.06;;;10.45;81.60
70921;BME280;58572;48.110;19.838;2024-03-02T07:01:31;97286.69;;;11.10;78.11
70921;BME280;58572;48.110;19.838;2024-03-02T07:03:57;97284.06;;;11.05;78.99
70921;BME280;58572;48.110;19.838;2024-03-02T07:06:24;97299.94;;;10.70;81.02
70921;BME280;58572;48.110;19.838;2024-03-02T07:08:51;97297.97;;;10.90;80.48
70921;BME280;58572;48.110;19.838;2024-03-02T07:11:18;97296.94;;;10.85;80.22
70921;BME280;58572;48.110;19.838;2024-03-02T07:13:46;97292.34;;;11.13;80.41
70921;BME280;58572;48.110;19.838;2024-03-02T07:16:13;97289.53;;;11.18;80.37
70921;BME280;58572;48.110;19.838;2024-03-02T07:18:54;97299.59;;;11.32;80.00
70921;BME280;58572;48.110;19.838;2024-03-02T07:21:22;97298.19;;;11.34;79.08
70921;BME280;58572;48.110;19.838;2024-03-02T07:23:49;97292.56;;;11.44;78.75
70921;BME280;58572;48.110;19.838;2024-03-02T07:26:16;97296.34;;;11.98;75.14
70921;BME280;58572;48.110;19.838;2024-03-02T07:28:46;97296.75;;;12.28;72.47
70921;BME280;58572;48.110;19.838;2024-03-02T07:31:14;97300.03;;;12.52;71.04
70921;BME280;58572;48.110;19.838;2024-03-02T07:33:43;97300.19;;;12.78;68.74
70921;BME280;58572;48.110;19.838;2024-03-02T07:36:10;97286.72;;;12.82;69.97
70921;BME280;58572;48.110;19.838;2024-03-02T07:38:37;97294.31;;;12.62;69.30
70921;BME280;58572;48.110;19.838;2024-03-02T07:41:04;97301.81;;;13.10;68.04
70921;BME280;58572;48.110;19.838;2024-03-02T07:43:31;97293.53;;;13.24;67.06
70921;BME280;58572;48.110;19.838;2024-03-02T07:46:00;97294.66;;;13.23;66.29
70921;BME280;58572;48.110;19.838;2024-03-02T07:48:28;97292.13;;;13.04;68.08
70921;BME280;58572;48.110;19.838;2024-03-02T07:50:56;97296.16;;;12.75;72.55
70921;BME280;58572;48.110;19.838;2024-03-02T07:53:22;97291.66;;;13.02;68.34
70921;BME280;58572;48.110;19.838;2024-03-02T07:55:49;97291.19;;;13.39;67.45
70921;BME280;58572;48.110;19.838;2024-03-02T07:58:16;97293.44;;;13.37;67.02
70921;BME280;58572;48.110;19.838;2024-03-02T08:00:45;97288.88;;;13.24;67.41
70921;BME280;58572;48.110;19.838;2024-03-02T08:03:13;97295.22;;;13.11;69.15
70921;BME280;58572;48.110;19.838;2024-03-02T08:05:40;97295.00;;;12.68;74.33
70921;BME280;58572;48.110;19.838;2024-03-02T08:08:07;97289.72;;;12.49;75.65
70921;BME280;58572;48.110;19.838;2024-03-02T08:10:34;97294.88;;;13.04;72.83
70921;BME280;58572;48.110;19.838;2024-03-02T08:13:01;97288.16;;;12.34;75.16
70921;BME280;58572;48.110;19.838;2024-03-02T08:15:28;97295.38;;;11.39;80.67
70921;BME280;58572;48.110;19.838;2024-03-02T08:17:55;97299.63;;;11.45;81.21
70921;BME280;58572;48.110;19.838;2024-03-02T08:20:23;97293.41;;;12.08;79.57
70921;BME280;58572;48.110;19.838;2024-03-02T08:22:50;97293.78;;;13.14;74.55
70921;BME280;58572;48.110;19.838;2024-03-02T08:25:20;97291.66;;;13.33;71.48
70921;BME280;58572;48.110;19.838;2024-03-02T08:27:47;97306.66;;;12.24;77.02
70921;BME280;58572;48.110;19.838;2024-03-02T08:30:14;97301.66;;;13.15;71.21
70921;BME280;58572;48.110;19.838;2024-03-02T08:32:41;97301.06;;;13.18;73.19
70921;BME280;58572;48.110;19.838;2024-03-02T08:35:08;97310.97;;;13.14;71.22
70921;BME280;58572;48.110;19.838;2024-03-02T08:37:38;97313.75;;;12.47;74.84
70921;BME280;58572;48.110;19.838;2024-03-02T08:40:07;97313.53;;;12.57;75.59
70921;BME280;58572;48.110;19.838;2024-03-02T08:42:34;97312.53;;;13.37;71.32
70921;BME280;58572;48.110;19.838;2024-03-02T08:45:01;97305.16;;;13.38;69.78
70921;BME280;58572;48.110;19.838;2024-03-02T08:47:28;97317.22;;;12.84;73.20
70921;BME280;58572;48.110;19.838;2024-03-02T08:49:55;97320.91;;;13.41;71.31
70921;BME280;58572;48.110;19.838;2024-03-02T08:52:22;97310.88;;;13.59;69.46
70921;BME280;58572;48.110;19.838;2024-03-02T08:54:50;97317.69;;;13.87;68.66
70921;BME280;58572;48.110;19.838;2024-03-02T08:57:17;97318.22;;;13.50;68.90
70921;BME280;58572;48.110;19.838;2024-03-02T08:59:44;97259.84;;;12.66;70.58
70921;BME280;58572;48.110;19.838;2024-03-02T09:02:11;97318.56;;;12.95;71.28
70921;BME280;58572;48.110;19.838;2024-03-02T09:04:38;97317.78;;;12.94;70.89
70921;BME280;58572;48.110;19.838;2024-03-02T09:07:05;97323.00;;;12.60;71.60
70921;BME280;58572;48.110;19.838;2024-03-02T09:09:33;97328.50;;;12.91;70.84
70921;BME280;58572;48.110;19.838;2024-03-02T09:12:01;97319.84;;;12.66;72.11
70921;BME280;58572;48.110;19.838;2024-03-02T09:14:29;97330.69;;;12.80;71.76
70921;BME280;58572;48.110;19.838;2024-03-02T09:16:56;97328.72;;;12.50;72.45
70921;BME280;58572;48.110;19.838;2024-03-02T09:19:23;97305.22;;;12.62;71.29
70921;BME280;58572;48.110;19.838;2024-03-02T09:21:50;97233.53;;;12.17;71.99
70921;BME280;58572;48.110;19.838;2024-03-02T09:24:16;97323.34;;;12.89;70.52
70921;BME280;58572;48.110;19.838;2024-03-02T09:26:43;97331.69;;;12.26;73.42
70921;BME280;58572;48.110;19.838;2024-03-02T09:29:12;97334.97;;;12.50;72.18
70921;BME280;58572;48.110;19.838;2024-03-02T09:31:39;97329.97;;;13.19;69.79
70921;BME280;58572;48.110;19.838;2024-03-02T09:34:06;97325.00;;;13.21;69.76
70921;BME280;58572;48.110;19.838;2024-03-02T09:36:33;97333.25;;;13.07;71.18
70921;BME280;58572;48.110;19.838;2024-03-02T09:39:00;97334.59;;;12.88;71.30
70921;BME280;58572;48.110;19.838;2024-03-02T09:41:29;97337.63;;;12.86;71.43
70921;BME280;58572;48.110;19.838;2024-03-02T09:43:56;97333.94;;;12.46;73.08
70921;BME280;58572;48.110;19.838;2024-03-02T09:46:25;97295.44;;;12.61;71.48
70921;BME280;58572;48.110;19.838;2024-03-02T09:48:52;97335.94;;;12.99;71.17
70921;BME280;58572;48.110;19.838;2024-03-02T09:51:19;97333.97;;;12.91;71.24
70921;BME280;58572;48.110;19.838;2024-03-02T09:53:47;97333.19;;;12.99;71.34
70921;BME280;58572;48.110;19.838;2024-03-02T09:56:14;97337.84;;;13.21;70.08
70921;BME280;58572;48.110;19.838;2024-03-02T09:58:44;97334.16;;;12.13;74.33
70921;BME280;58572;48.110;19.838;2024-03-02T10:01:11;97342.06;;;12.37;74.17
70921;BME280;58572;48.110;19.838;2024-03-02T10:03:39;97341.41;;;12.76;71.42
70921;BME280;58572;48.110;19.838;2024-03-02T10:06:18;97346.13;;;12.85;71.87
70921;BME280;58572;48.110;19.838;2024-03-02T10:08:45;97336.41;;;13.23;70.11
70921;BME280;58572;48.110;19.838;2024-03-02T10:11:25;97350.88;;;13.24;70.97
70921;BME280;58572;48.110;19.838;2024-03-02T10:14:04;97348.19;;;11.25;79.39
70921;BME280;58572;48.110;19.838;2024-03-02T10:16:34;97341.25;;;12.37;75.08
70921;BME280;58572;48.110;19.838;2024-03-02T10:19:17;97340.75;;;11.85;78.65
70921;BME280;58572;48.110;19.838;2024-03-02T10:21:44;97336.53;;;12.29;74.86
70921;BME280;58572;48.110;19.838;2024-03-02T10:24:12;97326.00;;;13.03;73.29
70921;BME280;58572;48.110;19.838;2024-03-02T10:26:39;97316.28;;;13.98;73.54
70921;BME280;58572;48.110;19.838;2024-03-02T10:29:07;97317.13;;;14.51;68.69
70921;BME280;58572;48.110;19.838;2024-03-02T10:31:37;97322.03;;;13.80;71.29
70921;BME280;58572;48.110;19.838;2024-03-02T10:34:04;97318.69;;;13.91;70.92
70921;BME280;58572;48.110;19.838;2024-03-02T10:36:33;97317.03;;;13.73;71.09
70921;BME280;58572;48.110;19.838;2024-03-02T10:39:02;97325.31;;;13.20;73.19
70921;BME280;58572;48.110;19.838;2024-03-02T10:41:32;97324.69;;;13.54;71.89
70921;BME280;58572;48.110;19.838;2024-03-02T10:43:59;97324.03;;;13.17;71.90
70921;BME280;58572;48.110;19.838;2024-03-02T10:46:29;97325.09;;;13.16;72.49
70921;BME280;58572;48.110;19.838;2024-03-02T10:48:57;97314.31;;;13.82;72.87
70921;BME280;58572;48.110;19.838;2024-03-02T10:51:24;97316.72;;;13.35;71.08
70921;BME280;58572;48.110;19.838;2024-03-02T10:53:54;97307.41;;;13.84;70.36
70921;BME280;58572;48.110;19.838;2024-03-02T10:56:27;97310.75;;;13.64;70.89
70921;BME280;58572;48.110;19.838;2024-03-02T10:59:00;97316.31;;;13.19;71.83
70921;BME280;58572;48.110;19.838;2024-03-02T11:01:29;97313.88;;;13.49;70.93
70921;BME280;58572;48.110;19.838;2024-03-02T11:03:58;97319.06;;;12.97;72.28
70921;BME280;58572;48.110;19.838;2024-03-02T11:06:28;97309.56;;;13.17;71.92
70921;BME280;58572;48.110;19.838;2024-03-02T11:09:00;97309.28;;;13.27;71.11
70921;BME280;58572;48.110;19.838;2024-03-02T11:11:37;97298.72;;;13.82;69.42
70921;BME280;58572;48.110;19.838;2024-03-02T11:14:07;97306.13;;;13.90;69.97
70921;BME280;58572;48.110;19.838;2024-03-02T11:16:36;97293.53;;;13.55;70.98
70921;BME280;58572;48.110;19.838;2024-03-02T11:19:05;97310.31;;;13.96;69.73
70921;BME280;58572;48.110;19.838;2024-03-02T11:21:33;97310.88;;;13.19;72.45
70921;BME280;58572;48.110;19.838;2024-03-02T11:24:04;97305.81;;;13.43;71.79
70921;BME280;58572;48.110;19.838;2024-03-02T11:26:53;97300.13;;;13.62;70.88
70921;BME280;58572;48.110;19.838;2024-03-02T11:29:44;97297.59;;;13.74;70.49
70921;BME280;58572;48.110;19.838;2024-03-02T11:32:16;97305.75;;;13.26;71.27
70921;BME280;58572;48.110;19.838;2024-03-02T11:34:45;97300.34;;;13.35;71.79
70921;BME280;58572;48.110;19.838;2024-03-02T11:37:13;97303.88;;;12.51;74.16
70921;BME280;58572;48.110;19.838;2024-03-02T11:39:44;97297.94;;;12.35;75.28
70921;BME280;58572;48.110;19.838;2024-03-02T11:42:12;97293.72;;;12.96;72.05
70921;BME280;58572;48.110;19.838;2024-03-02T11:44:43;97242.78;;;12.83;72.03
70921;BME280;58572;48.110;19.838;2024-03-02T11:47:13;97273.47;;;13.20;70.57
70921;BME280;58572;48.110;19.838;2024-03-02T11:49:42;97285.66;;;13.53;71.22
70921;BME280;58572;48.110;19.838;2024-03-02T11:52:12;97246.13;;;13.59;70.54
70921;BME280;58572;48.110;19.838;2024-03-02T11:54:41;97254.97;;;12.86;72.80
70921;BME280;58572;48.110;19.838;2024-03-02T11:57:14;97288.78;;;12.76;72.26
70921;BME280;58572;48.110;19.838;2024-03-02T11:59:41;97282.94;;;13.62;70.41
70921;BME280;58572;48.110;19.838;2024-03-02T12:02:15;97286.22;;;14.16;68.05
70921;BME280;58572;48.110;19.838;2024-03-02T12:04:43;97291.00;;;13.84;68.60
70921;BME280;58572;48.110;19.838;2024-03-02T12:07:11;97292.69;;;12.84;72.16
70921;BME280;58572;48.110;19.838;2024-03-02T12:09:38;97293.38;;;13.20;70.88
70921;BME280;58572;48.110;19.838;2024-03-02T12:12:06;97300.72;;;12.44;72.77
70921;BME280;58572;48.110;19.838;2024-03-02T12:14:36;97275.41;;;11.85;74.38
70921;BME280;58572;48.110;19.838;2024-03-02T12:17:05;97289.56;;;12.32;73.30
70921;BME280;58572;48.110;19.838;2024-03-02T12:19:32;97298.44;;;12.37;73.65
70921;BME280;58572;48.110;19.838;2024-03-02T12:21:59;97296.66;;;12.77;72.15
70921;BME280;58572;48.110;19.838;2024-03-02T12:24:28;97286.88;;;13.47;69.95
70921;BME280;58572;48.110;19.838;2024-03-02T12:26:56;97293.72;;;13.27;70.69
70921;BME280;58572;48.110;19.838;2024-03-02T12:29:25;97297.16;;;13.10;71.27
70921;BME280;58572;48.110;19.838;2024-03-02T12:31:54;97300.03;;;12.52;72.31
70921;BME280;58572;48.110;19.838;2024-03-02T12:34:22;97297.72;;;12.99;71.75
70921;BME280;58572;48.110;19.838;2024-03-02T12:36:49;97295.50;;;13.01;71.37
70921;BME280;58572;48.110;19.838;2024-03-02T12:39:19;97288.09;;;13.72;69.40
70921;BME280;58572;48.110;19.838;2024-03-02T12:41:49;97286.84;;;13.38;69.27
70921;BME280;58572;48.110;19.838;2024-03-02T12:44:16;97288.53;;;13.17;70.85
70921;BME280;58572;48.110;19.838;2024-03-02T12:46:43;97287.47;;;12.73;71.72
70921;BME280;58572;48.110;19.838;2024-03-02T12:49:13;97277.53;;;13.96;68.49
70921;BME280;58572;48.110;19.838;2024-03-02T12:51:42;97280.28;;;14.05;67.79
70921;BME280;58572;48.110;19.838;2024-03-02T12:54:09;97290.69;;;13.29;70.45
70921;BME280;58572;48.110;19.838;2024-03-02T12:56:36;97295.47;;;12.47;72.89